createdAt,value
2022-12-08T00:00:17.493Z,20.27
2022-12-08T00:01:20.527Z,21.90
2022-12-08T00:02:22.083Z,20.03
2022-12-08T00:03:23.753Z,19.80
2022-12-08T00:04:25.371Z,19.73
2022-12-08T00:05:45.476Z,18.70
2022-12-08T00:07:05.393Z,19.90
2022-12-08T00:08:26.783Z,19.10
2022-12-08T00:09:38.330Z,18.17
2022-12-08T00:10:50.289Z,21.00
2022-12-08T00:11:57.553Z,19.30
2022-12-08T00:12:58.948Z,20.73
2022-12-08T00:14:00.386Z,19.90
2022-12-08T00:15:01.904Z,20.50
2022-12-08T00:16:03.721Z,23.30
2022-12-08T00:17:05.972Z,23.07
2022-12-08T00:18:07.429Z,23.60
2022-12-08T00:19:08.836Z,20.93
2022-12-08T00:20:10.427Z,25.63
2022-12-08T00:21:11.788Z,22.07
2022-12-08T00:22:14.668Z,21.83
2022-12-08T00:23:16.961Z,20.97
2022-12-08T00:24:18.415Z,17.93
2022-12-08T00:25:19.726Z,23.20
2022-12-08T00:26:21.022Z,21.80
2022-12-08T00:27:22.356Z,23.93
2022-12-08T00:28:23.804Z,20.47
2022-12-08T00:29:25.189Z,21.20
2022-12-08T00:30:26.521Z,21.17
2022-12-08T00:31:27.911Z,18.43
2022-12-08T00:32:29.333Z,21.40
2022-12-08T00:33:30.707Z,19.67
2022-12-08T00:34:32.283Z,21.73
2022-12-08T00:35:35.650Z,24.30
2022-12-08T00:36:38.989Z,22.23
2022-12-08T00:37:40.758Z,19.37
2022-12-08T00:38:42.271Z,21.27
2022-12-08T00:39:43.669Z,21.10
2022-12-08T00:40:45.803Z,25.03
2022-12-08T00:42:05.829Z,19.63
2022-12-08T00:43:07.141Z,20.70
2022-12-08T00:44:08.682Z,21.53
2022-12-08T00:45:10.246Z,22.03
2022-12-08T00:46:12.064Z,21.83
2022-12-08T00:47:13.894Z,21.00
2022-12-08T00:48:15.184Z,22.00
2022-12-08T00:49:16.868Z,20.63
2022-12-08T00:50:18.218Z,24.70
2022-12-08T00:51:19.699Z,20.83
2022-12-08T00:52:21.119Z,21.37
2022-12-08T00:53:22.495Z,21.33
2022-12-08T00:54:23.980Z,20.60
2022-12-08T00:55:25.376Z,21.20
2022-12-08T00:56:27.153Z,22.00
2022-12-08T00:57:28.539Z,20.80
2022-12-08T00:58:29.946Z,21.27
2022-12-08T00:59:31.285Z,21.00
2022-12-08T01:00:32.647Z,20.03
2022-12-08T01:01:34.763Z,21.50
2022-12-08T01:02:36.137Z,24.03
2022-12-08T01:03:37.530Z,21.80
2022-12-08T01:04:39.019Z,21.20
2022-12-08T01:05:40.372Z,20.03
2022-12-08T01:06:42.206Z,20.70
2022-12-08T01:07:43.576Z,21.43
2022-12-08T01:08:45.006Z,21.93
2022-12-08T01:09:46.404Z,18.33
2022-12-08T01:10:47.905Z,19.37
2022-12-08T01:11:49.314Z,22.00
2022-12-08T01:12:50.623Z,19.20
2022-12-08T01:13:52.049Z,20.87
2022-12-08T01:14:55.857Z,19.03
2022-12-08T01:15:59.346Z,24.17
2022-12-08T01:17:00.770Z,20.37
2022-12-08T01:18:02.181Z,20.13
2022-12-08T01:19:03.581Z,19.37
2022-12-08T01:20:05.684Z,20.87
2022-12-08T01:21:07.938Z,20.97
2022-12-08T01:22:09.304Z,20.47
2022-12-08T01:23:10.634Z,19.90
2022-12-08T01:24:12.915Z,18.37
2022-12-08T01:25:14.306Z,19.00
2022-12-08T01:26:17.151Z,17.53
2022-12-08T01:27:18.545Z,19.10
2022-12-08T01:28:19.883Z,18.07
2022-12-08T01:29:21.191Z,20.13
2022-12-08T01:30:22.569Z,19.87
2022-12-08T01:31:24.367Z,20.53
2022-12-08T01:32:25.799Z,20.80
2022-12-08T01:33:27.436Z,20.53
2022-12-08T01:34:28.765Z,19.40
2022-12-08T01:35:30.080Z,18.93
2022-12-08T01:36:32.700Z,18.67
2022-12-08T01:37:34.036Z,19.60
2022-12-08T01:38:35.426Z,18.97
2022-12-08T01:39:36.763Z,18.53
2022-12-08T01:40:38.065Z,18.13
2022-12-08T01:41:39.401Z,20.00
2022-12-08T01:42:40.884Z,19.27
2022-12-08T01:43:50.653Z,19.83
2022-12-08T01:44:54.056Z,20.83
2022-12-08T01:45:55.420Z,22.77
2022-12-08T01:46:56.715Z,18.33
2022-12-08T01:48:00.609Z,21.97
2022-12-08T01:49:05.483Z,21.17
2022-12-08T01:50:08.326Z,18.73
2022-12-08T01:51:09.849Z,19.50
2022-12-08T01:52:14.583Z,21.57
2022-12-08T01:53:18.269Z,21.40
2022-12-08T01:54:20.137Z,20.67
2022-12-08T01:55:24.552Z,21.70
2022-12-08T01:56:34.372Z,21.60
2022-12-08T01:57:44.565Z,20.67
2022-12-08T01:58:48.335Z,22.90
2022-12-08T01:59:52.997Z,19.73
2022-12-08T02:00:54.484Z,18.37
2022-12-08T02:01:56.777Z,21.27
2022-12-08T02:02:59.445Z,19.00
2022-12-08T02:04:01.991Z,20.87
2022-12-08T02:05:03.446Z,20.00
2022-12-08T02:06:04.925Z,20.40
2022-12-08T02:07:08.412Z,19.50
2022-12-08T02:08:11.506Z,18.20
2022-12-08T02:09:12.935Z,18.60
2022-12-08T02:10:16.675Z,23.90
2022-12-08T02:11:18.004Z,21.33
2022-12-08T02:12:19.335Z,23.87
2022-12-08T02:13:21.480Z,20.17
2022-12-08T02:14:23.059Z,18.27
2022-12-08T02:15:31.820Z,24.53
2022-12-08T02:16:51.938Z,20.77
2022-12-08T02:18:19.635Z,22.43
2022-12-08T02:19:36.321Z,19.07
2022-12-08T02:21:00.523Z,20.10
2022-12-08T02:22:11.786Z,19.27
2022-12-08T02:23:18.933Z,21.47
2022-12-08T02:24:40.528Z,21.23
2022-12-08T02:26:00.261Z,22.50
2022-12-08T02:27:07.698Z,19.10
2022-12-08T02:28:20.461Z,19.97
2022-12-08T02:29:36.903Z,19.00
2022-12-08T02:30:52.987Z,18.23
2022-12-08T02:32:00.421Z,17.90
2022-12-08T02:33:09.348Z,19.57
2022-12-08T02:34:19.744Z,19.53
2022-12-08T02:35:30.439Z,18.23
2022-12-08T02:36:43.183Z,20.30
2022-12-08T02:37:57.343Z,19.27
2022-12-08T02:38:58.614Z,18.70
2022-12-08T02:40:03.301Z,19.87
2022-12-08T02:41:11.021Z,20.53
2022-12-08T02:42:16.970Z,20.70
2022-12-08T02:43:35.622Z,19.40
2022-12-08T02:44:43.288Z,20.00
2022-12-08T02:45:47.629Z,18.53
2022-12-08T02:46:54.008Z,20.20
2022-12-08T02:47:55.682Z,21.57
2022-12-08T02:48:57.327Z,21.37
2022-12-08T02:49:59.036Z,20.10
2022-12-08T02:51:01.073Z,21.20
2022-12-08T02:52:06.636Z,19.10
2022-12-08T02:54:08.987Z,20.80
2022-12-08T02:55:36.788Z,19.83
2022-12-08T02:57:01.371Z,20.93
2022-12-08T02:58:14.455Z,21.40
2022-12-08T02:59:22.372Z,17.37
2022-12-08T03:00:25.288Z,20.93
2022-12-08T03:01:32.771Z,20.13
2022-12-08T03:02:48.002Z,22.57
2022-12-08T03:03:49.404Z,19.10
2022-12-08T03:05:01.488Z,18.03
2022-12-08T03:06:25.104Z,19.73
2022-12-08T03:07:33.274Z,19.27
2022-12-08T03:08:34.585Z,21.30
2022-12-08T03:09:39.460Z,19.40
2022-12-08T03:10:42.921Z,18.97
2022-12-08T03:12:07.589Z,20.17
2022-12-08T03:13:14.126Z,19.20
2022-12-08T03:14:16.976Z,19.43
2022-12-08T03:15:19.479Z,19.07
2022-12-08T03:16:23.598Z,19.57
2022-12-08T03:17:28.298Z,22.60
2022-12-08T03:18:31.809Z,21.37
2022-12-08T03:19:35.851Z,19.73
2022-12-08T03:20:38.320Z,19.63
2022-12-08T03:21:40.268Z,19.10
2022-12-08T03:22:42.856Z,20.17
2022-12-08T03:23:46.274Z,20.80
2022-12-08T03:24:48.354Z,21.93
2022-12-08T03:25:54.013Z,18.87
2022-12-08T03:27:03.724Z,22.03
2022-12-08T03:28:05.695Z,18.03
2022-12-08T03:29:07.121Z,20.13
2022-12-08T03:30:09.429Z,20.47
2022-12-08T03:31:12.439Z,19.50
2022-12-08T03:32:19.258Z,21.60
2022-12-08T03:33:24.944Z,21.63
2022-12-08T03:34:28.096Z,19.80
2022-12-08T03:35:30.936Z,21.17
2022-12-08T03:36:32.478Z,20.77
2022-12-08T03:37:35.588Z,20.77
2022-12-08T03:38:38.005Z,20.37
2022-12-08T03:39:39.316Z,22.53
2022-12-08T03:40:40.866Z,21.67
2022-12-08T03:41:42.226Z,21.07
2022-12-08T03:42:43.607Z,19.40
2022-12-08T03:43:52.334Z,21.30
2022-12-08T03:44:53.640Z,20.03
2022-12-08T03:45:55.003Z,22.10
2022-12-08T03:46:56.422Z,19.57
2022-12-08T03:47:57.760Z,21.57
2022-12-08T03:48:59.084Z,22.83
2022-12-08T03:50:00.528Z,22.90
2022-12-08T03:51:01.977Z,20.97
2022-12-08T03:52:03.468Z,22.63
2022-12-08T03:53:04.901Z,22.47
2022-12-08T03:54:06.343Z,25.03
2022-12-08T03:55:07.905Z,22.37
2022-12-08T03:56:15.743Z,22.20
2022-12-08T03:57:17.137Z,23.07
2022-12-08T03:58:18.542Z,21.33
2022-12-08T03:59:19.894Z,22.27
2022-12-08T04:00:21.304Z,25.33
2022-12-08T04:01:22.872Z,24.53
2022-12-08T04:02:24.415Z,24.17
2022-12-08T04:03:25.958Z,21.13
2022-12-08T04:04:27.379Z,23.97
2022-12-08T04:05:28.710Z,25.17
2022-12-08T04:06:30.054Z,23.97
2022-12-08T04:07:31.369Z,23.40
2022-12-08T04:08:32.904Z,24.43
2022-12-08T04:09:34.237Z,28.53
2022-12-08T04:10:35.584Z,24.30
2022-12-08T04:11:36.886Z,25.47
2022-12-08T04:12:38.230Z,23.10
2022-12-08T04:13:40.279Z,26.20
2022-12-08T04:14:41.596Z,23.97
2022-12-08T04:15:46.592Z,23.57
2022-12-08T04:16:47.996Z,27.67
2022-12-08T04:17:49.425Z,25.13
2022-12-08T04:18:51.039Z,25.40
2022-12-08T04:19:52.378Z,23.13
2022-12-08T04:20:53.761Z,21.67
2022-12-08T04:21:55.236Z,24.30
2022-12-08T04:22:56.556Z,24.47
2022-12-08T04:24:01.281Z,25.67
2022-12-08T04:25:03.401Z,23.37
2022-12-08T04:26:05.517Z,26.90
2022-12-08T04:27:07.111Z,22.47
2022-12-08T04:28:08.474Z,23.63
2022-12-08T04:29:09.840Z,25.27
2022-12-08T04:30:11.513Z,25.13
2022-12-08T04:31:13.035Z,23.17
2022-12-08T04:32:14.489Z,25.20
2022-12-08T04:33:16.207Z,22.47
2022-12-08T04:34:17.563Z,26.43
2022-12-08T04:35:18.883Z,25.00
2022-12-08T04:36:20.368Z,22.73
2022-12-08T04:37:21.682Z,25.07
2022-12-08T04:38:23.742Z,22.13
2022-12-08T04:39:25.125Z,27.60
2022-12-08T04:40:26.450Z,21.23
2022-12-08T04:41:27.978Z,23.43
2022-12-08T04:42:29.405Z,24.30
2022-12-08T04:43:30.753Z,23.67
2022-12-08T04:44:32.084Z,24.30
2022-12-08T04:45:33.970Z,25.47
2022-12-08T04:46:40.191Z,26.10
2022-12-08T04:47:44.475Z,23.07
2022-12-08T04:48:45.896Z,25.47
2022-12-08T04:49:47.216Z,25.37
2022-12-08T04:50:48.597Z,24.90
2022-12-08T04:51:49.957Z,23.40
2022-12-08T04:52:51.312Z,24.47
2022-12-08T04:53:52.710Z,25.77
2022-12-08T04:54:54.038Z,22.60
2022-12-08T04:55:55.402Z,25.03
2022-12-08T04:56:56.940Z,24.10
2022-12-08T04:57:58.508Z,23.33
2022-12-08T04:58:59.870Z,24.70
2022-12-08T05:00:01.680Z,25.30
2022-12-08T05:01:03.411Z,27.77
2022-12-08T05:02:05.090Z,21.87
2022-12-08T05:03:06.789Z,24.33
2022-12-08T05:04:08.211Z,24.17
2022-12-08T05:05:10.028Z,23.63
2022-12-08T05:06:14.488Z,23.33
2022-12-08T05:07:15.916Z,22.27
2022-12-08T05:08:17.242Z,23.17
2022-12-08T05:09:18.647Z,23.73
2022-12-08T05:10:20.126Z,23.17
2022-12-08T05:11:21.480Z,21.07
2022-12-08T05:12:23.034Z,23.23
2022-12-08T05:13:24.346Z,21.67
2022-12-08T05:14:25.653Z,22.57
2022-12-08T05:15:27.308Z,23.63
2022-12-08T05:16:28.720Z,24.07
2022-12-08T05:17:30.151Z,21.27
2022-12-08T05:18:31.506Z,21.87
2022-12-08T05:19:32.828Z,20.13
2022-12-08T05:20:34.515Z,22.70
2022-12-08T05:21:35.836Z,22.90
2022-12-08T05:22:37.136Z,24.20
2022-12-08T05:23:38.648Z,21.93
2022-12-08T05:24:45.680Z,23.93
2022-12-08T05:25:48.661Z,22.43
2022-12-08T05:26:50.032Z,20.70
2022-12-08T05:27:51.418Z,22.87
2022-12-08T05:28:52.775Z,20.33
2022-12-08T05:29:54.093Z,18.03
2022-12-08T05:30:55.428Z,21.07
2022-12-08T05:31:56.795Z,18.70
2022-12-08T05:32:58.158Z,20.80
2022-12-08T05:34:03.113Z,20.30
2022-12-08T05:35:05.114Z,20.10
2022-12-08T05:36:06.795Z,20.50
2022-12-08T05:37:08.178Z,20.07
2022-12-08T05:38:10.416Z,21.13
2022-12-08T05:39:15.254Z,17.13
2022-12-08T05:40:16.576Z,19.03
2022-12-08T05:41:19.935Z,19.27
2022-12-08T05:42:24.772Z,18.17
2022-12-08T05:43:27.001Z,18.27
2022-12-08T05:44:28.392Z,16.87
2022-12-08T05:45:29.855Z,20.80
2022-12-08T05:46:31.257Z,18.60
2022-12-08T05:47:35.983Z,17.53
2022-12-08T05:48:37.772Z,18.60
2022-12-08T05:49:39.115Z,16.73
2022-12-08T05:50:45.250Z,17.97
2022-12-08T05:51:46.670Z,16.03
2022-12-08T05:52:48.017Z,17.57
2022-12-08T05:53:50.215Z,18.97
2022-12-08T05:54:51.556Z,17.87
2022-12-08T05:55:54.811Z,19.07
2022-12-08T05:56:56.236Z,18.37
2022-12-08T05:57:57.542Z,18.03
2022-12-08T05:58:59.483Z,16.93
2022-12-08T06:00:01.187Z,16.60
2022-12-08T06:01:25.511Z,17.43
2022-12-08T06:02:28.440Z,16.53
2022-12-08T06:03:30.106Z,16.53
2022-12-08T06:04:31.492Z,18.17
2022-12-08T06:05:33.336Z,19.30
2022-12-08T06:06:34.901Z,16.90
2022-12-08T06:07:36.217Z,18.43
2022-12-08T06:08:37.533Z,19.20
2022-12-08T06:09:38.856Z,17.27
2022-12-08T06:10:41.011Z,15.33
2022-12-08T06:11:42.648Z,17.60
2022-12-08T06:12:44.161Z,16.17
2022-12-08T06:13:45.855Z,16.97
2022-12-08T06:14:47.171Z,17.70
2022-12-08T06:15:48.510Z,18.63
2022-12-08T06:16:49.889Z,17.60
2022-12-08T06:17:51.222Z,17.50
2022-12-08T06:18:52.624Z,17.03
2022-12-08T06:19:54.010Z,18.97
2022-12-08T06:21:02.064Z,19.03
2022-12-08T06:22:03.386Z,16.37
2022-12-08T06:23:04.687Z,20.07
2022-12-08T06:24:06.076Z,20.37
2022-12-08T06:25:10.079Z,18.53
2022-12-08T06:26:13.338Z,21.93
2022-12-08T06:27:14.633Z,22.13
2022-12-08T06:28:15.981Z,19.53
2022-12-08T06:29:17.304Z,21.33
2022-12-08T06:30:18.687Z,20.87
2022-12-08T06:31:21.366Z,20.77
2022-12-08T06:32:27.264Z,24.37
2022-12-08T06:33:28.989Z,23.23
2022-12-08T06:34:30.325Z,25.10
2022-12-08T06:35:31.736Z,22.43
2022-12-08T06:36:34.575Z,24.53
2022-12-08T06:37:36.033Z,22.20
2022-12-08T06:38:42.949Z,23.80
2022-12-08T06:39:45.212Z,24.30
2022-12-08T06:40:52.652Z,24.13
2022-12-08T06:42:12.508Z,23.57
2022-12-08T06:43:13.854Z,20.23
2022-12-08T06:44:15.200Z,22.57
2022-12-08T06:45:18.081Z,23.90
2022-12-08T06:46:20.050Z,25.47
2022-12-08T06:47:26.062Z,25.77
2022-12-08T06:48:27.665Z,22.93
2022-12-08T06:49:29.006Z,24.87
2022-12-08T06:50:30.314Z,26.30
2022-12-08T06:51:31.636Z,24.43
2022-12-08T06:52:33.076Z,22.93
2022-12-08T06:53:34.588Z,23.53
2022-12-08T06:54:36.659Z,26.27
2022-12-08T06:57:00.427Z,25.00
2022-12-08T06:58:02.065Z,27.10
2022-12-08T06:59:03.591Z,23.27
2022-12-08T07:00:05.971Z,24.43
2022-12-08T07:01:12.007Z,27.10
2022-12-08T07:02:13.446Z,24.60
2022-12-08T07:03:14.864Z,23.93
2022-12-08T07:04:16.264Z,24.57
2022-12-08T07:05:17.651Z,25.10
2022-12-08T07:06:21.074Z,24.93
2022-12-08T07:07:22.573Z,24.70
2022-12-08T07:08:24.011Z,26.50
2022-12-08T07:09:25.433Z,29.23
2022-12-08T07:10:27.151Z,28.43
2022-12-08T07:11:28.534Z,27.43
2022-12-08T07:12:29.908Z,29.27
2022-12-08T07:13:31.197Z,26.40
2022-12-08T07:14:32.568Z,25.40
2022-12-08T07:15:33.901Z,26.43
2022-12-08T07:16:35.303Z,26.27
2022-12-08T07:17:36.690Z,24.87
2022-12-08T07:18:38.649Z,26.30
2022-12-08T07:19:40.007Z,25.40
2022-12-08T07:20:41.395Z,25.00
2022-12-08T07:21:42.712Z,25.33
2022-12-08T07:22:50.856Z,25.67
2022-12-08T07:23:57.353Z,27.37
2022-12-08T07:24:59.316Z,25.63
2022-12-08T07:26:02.270Z,23.07
2022-12-08T07:27:03.564Z,27.97
2022-12-08T07:28:08.757Z,23.60
2022-12-08T07:29:10.833Z,25.13
2022-12-08T07:30:12.666Z,24.43
2022-12-08T07:31:19.526Z,28.13
2022-12-08T07:32:20.969Z,29.17
2022-12-08T07:33:22.415Z,23.53
2022-12-08T07:34:23.777Z,21.43
2022-12-08T07:35:25.167Z,24.50
2022-12-08T07:36:26.697Z,23.70
2022-12-08T07:37:28.073Z,23.90
2022-12-08T07:38:29.597Z,25.97
2022-12-08T07:39:30.949Z,26.50
2022-12-08T07:40:32.271Z,30.43
2022-12-08T07:41:33.770Z,23.70
2022-12-08T07:42:35.132Z,26.87
2022-12-08T07:43:50.394Z,25.33
2022-12-08T07:44:53.336Z,22.93
2022-12-08T07:45:55.087Z,24.33
2022-12-08T07:46:56.737Z,24.43
2022-12-08T07:47:58.172Z,25.67
2022-12-08T07:48:59.940Z,23.70
2022-12-08T07:50:01.356Z,25.33
2022-12-08T07:51:03.684Z,23.57
2022-12-08T07:52:05.009Z,22.60
2022-12-08T07:53:06.590Z,24.10
2022-12-08T07:54:11.165Z,27.83
2022-12-08T07:55:12.473Z,26.90
2022-12-08T07:56:14.111Z,24.60
2022-12-08T07:57:15.545Z,23.77
2022-12-08T07:58:16.967Z,27.27
2022-12-08T07:59:19.116Z,22.67
2022-12-08T08:00:20.661Z,24.97
2022-12-08T08:01:22.216Z,23.03
2022-12-08T08:02:25.558Z,24.93
2022-12-08T08:03:27.266Z,22.67
2022-12-08T08:04:28.764Z,24.97
2022-12-08T08:05:30.114Z,24.37
2022-12-08T08:06:32.174Z,22.83
2022-12-08T08:07:33.576Z,25.33
2022-12-08T08:08:34.934Z,25.10
2022-12-08T08:09:36.330Z,24.43
2022-12-08T08:10:37.665Z,23.10
2022-12-08T08:11:38.982Z,22.93
2022-12-08T08:12:40.304Z,22.37
2022-12-08T08:13:41.715Z,21.60
2022-12-08T08:14:43.036Z,26.30
2022-12-08T08:15:44.436Z,23.87
2022-12-08T08:16:47.399Z,22.30
2022-12-08T08:17:49.653Z,23.20
2022-12-08T08:18:51.062Z,22.00
2022-12-08T08:19:52.422Z,23.93
2022-12-08T08:20:53.735Z,22.33
2022-12-08T08:21:55.114Z,21.40
2022-12-08T08:22:56.481Z,23.13
2022-12-08T08:23:57.845Z,21.50
2022-12-08T08:24:59.198Z,24.63
2022-12-08T08:26:04.260Z,20.63
2022-12-08T08:27:05.602Z,21.67
2022-12-08T08:28:06.996Z,23.33
2022-12-08T08:29:08.391Z,22.00
2022-12-08T08:30:15.215Z,22.63
2022-12-08T08:31:24.004Z,20.87
2022-12-08T08:32:25.483Z,21.27
2022-12-08T08:33:27.648Z,23.83
2022-12-08T08:34:28.989Z,23.47
2022-12-08T08:35:30.685Z,21.03
2022-12-08T08:36:32.580Z,21.40
2022-12-08T08:37:33.910Z,21.23
2022-12-08T08:38:36.098Z,22.70
2022-12-08T08:39:37.512Z,20.77
2022-12-08T08:40:38.824Z,22.23
2022-12-08T08:41:40.231Z,20.33
2022-12-08T08:42:41.591Z,23.03
2022-12-08T08:43:42.917Z,21.47
2022-12-08T08:44:44.309Z,21.47
2022-12-08T08:45:46.229Z,19.90
2022-12-08T08:46:47.675Z,20.47
2022-12-08T08:47:49.215Z,22.27
2022-12-08T08:48:50.592Z,27.93
2022-12-08T08:49:51.978Z,23.90
2022-12-08T08:50:53.382Z,22.30
2022-12-08T08:51:54.751Z,20.63
2022-12-08T08:52:56.130Z,24.27
2022-12-08T08:53:57.554Z,21.63
2022-12-08T08:54:58.887Z,24.37
2022-12-08T08:56:02.655Z,23.33
2022-12-08T08:57:04.445Z,23.87
2022-12-08T08:58:05.775Z,20.20
2022-12-08T08:59:07.298Z,22.90
2022-12-08T09:00:10.089Z,25.00
2022-12-08T09:01:15.351Z,21.03
2022-12-08T09:02:18.295Z,24.30
2022-12-08T09:03:19.636Z,28.73
2022-12-08T09:04:21.666Z,20.60
2022-12-08T09:05:23.061Z,20.23
2022-12-08T09:06:24.826Z,20.00
2022-12-08T09:07:26.248Z,21.03
2022-12-08T09:08:27.645Z,22.63
2022-12-08T09:09:29.011Z,20.67
2022-12-08T09:10:30.395Z,21.07
2022-12-08T09:11:32.395Z,18.27
2022-12-08T09:12:33.687Z,20.63
2022-12-08T09:13:35.291Z,21.23
2022-12-08T09:14:36.696Z,19.97
2022-12-08T09:15:38.062Z,20.57
2022-12-08T09:16:42.371Z,19.67
2022-12-08T09:17:44.043Z,20.37
2022-12-08T09:18:45.541Z,21.47
2022-12-08T09:19:46.875Z,24.47
2022-12-08T09:20:48.275Z,24.70
2022-12-08T09:21:49.621Z,22.93
2022-12-08T09:22:51.332Z,21.97
2022-12-08T09:23:53.926Z,18.17
2022-12-08T09:24:55.249Z,16.40
2022-12-08T09:25:56.621Z,20.07
2022-12-08T09:26:58.119Z,23.53
2022-12-08T09:27:59.465Z,19.93
2022-12-08T09:29:00.869Z,17.10
2022-12-08T09:30:02.475Z,17.03
2022-12-08T09:31:04.291Z,24.30
2022-12-08T09:32:05.837Z,23.50
2022-12-08T09:33:07.143Z,17.67
2022-12-08T09:34:09.847Z,17.73
2022-12-08T09:35:11.226Z,18.50
2022-12-08T09:36:12.862Z,19.37
2022-12-08T09:37:14.352Z,18.43
2022-12-08T09:38:16.023Z,17.90
2022-12-08T09:39:17.545Z,17.03
2022-12-08T09:40:20.449Z,18.20
2022-12-08T09:41:40.397Z,19.37
2022-12-08T09:43:01.752Z,18.77
2022-12-08T09:44:23.324Z,16.60
2022-12-08T09:45:26.624Z,15.90
2022-12-08T09:46:29.557Z,19.10
2022-12-08T09:47:39.787Z,20.20
2022-12-08T09:48:44.412Z,19.37
2022-12-08T09:49:51.994Z,20.43
2022-12-08T09:50:55.203Z,20.67
2022-12-08T09:51:57.021Z,17.77
2022-12-08T09:53:13.970Z,18.23
2022-12-08T09:54:15.266Z,17.10
2022-12-08T09:55:24.899Z,18.57
2022-12-08T09:56:32.893Z,17.13
2022-12-08T09:57:34.264Z,20.60
2022-12-08T09:58:35.546Z,18.77
2022-12-08T09:59:36.936Z,16.73
2022-12-08T10:00:38.714Z,17.20
2022-12-08T10:01:41.967Z,18.00
2022-12-08T10:02:45.537Z,16.33
2022-12-08T10:03:46.969Z,16.50
2022-12-08T10:04:48.385Z,16.80
2022-12-08T10:05:55.023Z,16.00
2022-12-08T10:07:09.804Z,16.17
2022-12-08T10:08:25.270Z,16.37
2022-12-08T10:09:41.429Z,16.03
2022-12-08T10:10:46.591Z,18.23
2022-12-08T10:12:03.400Z,16.60
2022-12-08T10:13:23.284Z,15.47
2022-12-08T10:14:29.912Z,15.90
2022-12-08T10:15:40.805Z,16.87
2022-12-08T10:16:44.444Z,16.07
2022-12-08T10:17:49.824Z,17.93
2022-12-08T10:18:55.324Z,17.77
2022-12-08T10:20:10.833Z,20.17
2022-12-08T10:21:15.455Z,15.73
2022-12-08T10:22:24.204Z,17.33
2022-12-08T10:23:33.122Z,18.33
2022-12-08T10:24:41.067Z,17.17
2022-12-08T10:25:46.428Z,19.50
2022-12-08T10:26:47.909Z,16.40
2022-12-08T10:27:51.152Z,14.90
2022-12-08T10:28:52.561Z,17.60
2022-12-08T10:29:53.917Z,15.83
2022-12-08T10:30:55.276Z,17.30
2022-12-08T10:31:57.183Z,16.63
2022-12-08T10:32:58.845Z,16.80
2022-12-08T10:34:01.225Z,18.03
2022-12-08T10:35:02.522Z,18.57
2022-12-08T10:36:04.800Z,15.77
2022-12-08T10:37:09.418Z,15.80
2022-12-08T10:38:17.255Z,14.97
2022-12-08T10:39:33.871Z,16.23
2022-12-08T10:40:40.727Z,16.03
2022-12-08T10:41:46.691Z,14.47
2022-12-08T10:42:50.556Z,16.47
2022-12-08T10:43:54.869Z,13.27
2022-12-08T10:45:03.971Z,16.07
2022-12-08T10:46:09.751Z,13.87
2022-12-08T10:47:12.126Z,16.27
2022-12-08T10:48:13.435Z,18.17
2022-12-08T10:49:24.757Z,14.10
2022-12-08T10:50:29.216Z,15.30
2022-12-08T10:51:36.360Z,13.90
2022-12-08T10:52:39.001Z,14.43
2022-12-08T10:53:45.462Z,14.70
2022-12-08T10:54:51.558Z,17.07
2022-12-08T10:56:04.882Z,13.73
2022-12-08T10:57:06.436Z,15.20
2022-12-08T10:58:28.038Z,13.63
2022-12-08T10:59:29.510Z,15.93
2022-12-08T11:00:31.635Z,14.73
2022-12-08T11:01:36.110Z,14.60
2022-12-08T11:02:49.679Z,13.93
2022-12-08T11:03:55.578Z,15.07
2022-12-08T11:04:59.407Z,13.90
2022-12-08T11:06:07.278Z,15.17
2022-12-08T11:07:12.490Z,14.63
2022-12-08T11:08:15.991Z,14.70
2022-12-08T11:09:17.338Z,14.17
2022-12-08T11:10:19.515Z,12.87
2022-12-08T11:11:27.552Z,15.63
2022-12-08T11:12:31.347Z,15.73
2022-12-08T11:13:40.721Z,13.30
2022-12-08T11:14:42.005Z,14.33
2022-12-08T11:15:44.495Z,12.87
2022-12-08T11:16:46.055Z,14.83
2022-12-08T11:17:59.521Z,12.27
2022-12-08T11:19:03.643Z,12.17
2022-12-08T11:20:10.880Z,12.73
2022-12-08T11:21:17.089Z,14.93
2022-12-08T11:22:22.347Z,15.97
2022-12-08T11:23:25.045Z,12.47
2022-12-08T11:24:30.224Z,12.90
2022-12-08T11:25:35.246Z,11.97
2022-12-08T11:26:37.116Z,13.87
2022-12-08T11:27:43.477Z,11.77
2022-12-08T11:28:44.917Z,12.80
2022-12-08T11:29:46.347Z,13.43
2022-12-08T11:30:49.490Z,15.00
2022-12-08T11:31:53.758Z,13.30
2022-12-08T11:32:56.313Z,12.37
2022-12-08T11:33:58.124Z,14.00
2022-12-08T11:35:01.911Z,10.50
2022-12-08T11:36:04.932Z,11.60
2022-12-08T11:37:08.600Z,11.13
2022-12-08T11:38:22.524Z,11.93
2022-12-08T11:39:26.186Z,11.97
2022-12-08T11:40:37.894Z,13.07
2022-12-08T11:41:40.884Z,11.27
2022-12-08T11:43:06.163Z,12.17
2022-12-08T11:44:07.437Z,12.13
2022-12-08T11:45:12.732Z,12.77
2022-12-08T11:46:14.076Z,11.23
2022-12-08T11:47:22.205Z,12.60
2022-12-08T11:48:27.245Z,11.80
2022-12-08T11:49:36.579Z,10.43
2022-12-08T11:50:41.303Z,11.77
2022-12-08T11:51:53.285Z,11.87
2022-12-08T11:52:55.470Z,10.43
2022-12-08T11:54:15.649Z,12.47
2022-12-08T11:55:26.175Z,10.70
2022-12-08T11:56:35.183Z,12.37
2022-12-08T11:57:36.599Z,11.37
2022-12-08T11:58:44.480Z,11.60
2022-12-08T11:59:49.537Z,11.63
2022-12-08T12:00:50.915Z,11.70
2022-12-08T12:01:52.349Z,10.90
2022-12-08T12:03:01.317Z,10.87
2022-12-08T12:04:21.547Z,10.13
2022-12-08T12:06:08.619Z,12.50
2022-12-08T12:07:21.720Z,11.13
2022-12-08T12:08:41.299Z,13.60
2022-12-08T12:09:48.525Z,13.13
2022-12-08T12:11:08.954Z,10.50
2022-12-08T12:12:22.780Z,12.97
2022-12-08T12:13:42.886Z,11.90
2022-12-08T12:14:56.387Z,12.77
2022-12-08T12:16:16.524Z,10.60
2022-12-08T12:17:23.651Z,11.70
2022-12-08T12:18:27.054Z,11.80
2022-12-08T12:19:30.301Z,11.00
2022-12-08T12:20:31.699Z,11.67
2022-12-08T12:21:38.864Z,11.60
2022-12-08T12:22:41.202Z,10.77
2022-12-08T12:23:46.705Z,12.07
2022-12-08T12:24:49.645Z,16.17
2022-12-08T12:25:55.918Z,13.57
2022-12-08T12:26:59.955Z,13.87
2022-12-08T12:28:06.339Z,14.37
2022-12-08T12:29:15.967Z,11.50
2022-12-08T12:30:22.817Z,11.10
2022-12-08T12:31:35.912Z,12.57
2022-12-08T12:32:48.242Z,12.83
2022-12-08T12:33:50.404Z,14.83
2022-12-08T12:34:56.459Z,10.07
2022-12-08T12:35:58.474Z,12.23
2022-12-08T12:37:10.169Z,12.33
2022-12-08T12:59:28.414Z,18.70
2022-12-08T13:00:29.784Z,14.50
2022-12-08T13:01:36.350Z,13.93
2022-12-08T13:02:40.856Z,11.93
2022-12-08T13:03:43.369Z,14.63
2022-12-08T13:04:52.146Z,13.13
2022-12-08T13:05:53.651Z,15.37
2022-12-08T13:06:55.057Z,16.23
2022-12-08T13:08:02.325Z,14.63
2022-12-08T13:09:04.134Z,13.60
2022-12-08T13:10:11.581Z,15.37
2022-12-08T13:11:12.985Z,14.23
2022-12-08T13:12:20.177Z,12.83
2022-12-08T13:13:21.673Z,13.67
2022-12-08T13:14:30.832Z,12.40
2022-12-08T13:15:34.896Z,13.20
2022-12-08T13:16:39.504Z,12.33
2022-12-08T13:17:44.004Z,13.17
2022-12-08T13:18:56.078Z,11.50
2022-12-08T13:19:58.719Z,13.03
2022-12-08T13:21:06.299Z,12.00
2022-12-08T13:22:37.303Z,12.47
2022-12-08T13:23:38.637Z,12.87
2022-12-08T13:24:39.994Z,12.50
2022-12-08T13:25:43.856Z,12.13
2022-12-08T13:26:46.628Z,10.93
2022-12-08T13:27:54.528Z,12.07
2022-12-08T13:28:58.992Z,12.67
2022-12-08T13:30:19.339Z,13.80
2022-12-08T13:31:45.098Z,11.83
2022-12-08T13:34:37.277Z,13.37
2022-12-08T13:35:42.103Z,13.40
2022-12-08T13:36:52.604Z,13.80
2022-12-08T13:37:55.461Z,11.97
2022-12-08T13:38:57.952Z,11.67
2022-12-08T13:40:03.160Z,11.67
2022-12-08T13:41:09.023Z,12.63
2022-12-08T13:42:29.326Z,13.50
2022-12-08T13:44:31.086Z,12.63
2022-12-08T13:46:12.153Z,12.33
2022-12-08T13:48:27.918Z,11.67
2022-12-08T13:56:43.999Z,11.30
2022-12-08T13:57:10.557Z,11.63
2022-12-08T13:58:18.544Z,11.13
2022-12-08T13:59:19.870Z,11.23
2022-12-08T14:00:22.233Z,10.70
2022-12-08T14:01:24.078Z,11.40
2022-12-08T14:02:43.781Z,10.67
2022-12-08T14:04:37.707Z,11.70
2022-12-08T14:06:10.643Z,11.13
2022-12-08T14:07:01.969Z,12.97
2022-12-08T14:08:07.103Z,11.77
2022-12-08T14:09:17.148Z,12.63
2022-12-08T14:10:29.238Z,10.83
2022-12-08T14:11:37.941Z,13.27
2022-12-08T14:12:40.684Z,13.70
2022-12-08T14:13:42.025Z,12.57
2022-12-08T14:15:04.548Z,13.23
2022-12-08T14:16:06.523Z,13.00
2022-12-08T14:17:15.349Z,12.50
2022-12-08T14:18:27.415Z,13.97
2022-12-08T14:19:30.086Z,12.33
2022-12-08T14:20:38.670Z,12.50
2022-12-08T14:21:53.631Z,14.00
2022-12-08T14:22:55.557Z,11.40